Barnes Corners, New York
Current Conditions -  °F | °C
As of 3:58 PM on Tuesday 25 Nov 2014 (Local Time) from KGTB Reporting Station
Overcast Overcast  
Wind Chill: 33°   Ceiling: 4800
Heat Index: 39°   Visibility: 10mi
Dew Point: 32°   Wind: 10mph
Humidity: 76%   Direction: 270°W
Pressure: 29.93"   Gusts: 20mph
Location:  43.8415°N, 75.7057°W
Report Text: KGTB 252058Z AUTO 27009G17KT 10SM OVC048 04/00 A2993 RMK AO2 PK WND 24031/09 SLP141 T00410002 52019
Loading
Personal Weather Stations






























Interactive Weather Map New forecast layout! Learn more

10-Day Weather Forecast

Advertisements
Track Severe Weather on mobile